sensor_id;sensor_type;location;lat;lon;timestamp;temperature;humidity
40454;DHT22;26160;51.858;4.398;2023-04-03T00:01:42;5.30;99.90
40454;DHT22;26160;51.858;4.398;2023-04-03T00:04:08;5.30;99.90
40454;DHT22;26160;51.858;4.398;2023-04-03T00:06:34;5.30;99.90
40454;DHT22;26160;51.858;4.398;2023-04-03T00:09:00;5.20;99.90
40454;DHT22;26160;51.858;4.398;2023-04-03T00:11:27;5.20;99.90
40454;DHT22;26160;51.858;4.398;2023-04-03T00:13:53;5.20;99.90
40454;DHT22;26160;51.858;4.398;2023-04-03T00:16:19;5.20;99.90
40454;DHT22;26160;51.858;4.398;2023-04-03T00:18:45;5.10;99.90
40454;DHT22;26160;51.858;4.398;2023-04-03T00:21:13;5.00;99.90
40454;DHT22;26160;51.858;4.398;2023-04-03T00:23:39;5.00;99.90
40454;DHT22;26160;51.858;4.398;2023-04-03T00:26:05;5.00;99.90
40454;DHT22;26160;51.858;4.398;2023-04-03T00:28:31;4.90;99.90
40454;DHT22;26160;51.858;4.398;2023-04-03T00:30:58;4.90;99.90
40454;DHT22;26160;51.858;4.398;2023-04-03T00:33:24;4.90;99.90
40454;DHT22;26160;51.858;4.398;2023-04-03T00:35:50;4.90;99.90
40454;DHT22;26160;51.858;4.398;2023-04-03T00:38:17;4.80;99.90
40454;DHT22;26160;51.858;4.398;2023-04-03T00:40:45;4.80;99.90
40454;DHT22;26160;51.858;4.398;2023-04-03T00:43:18;4.80;99.90
40454;DHT22;26160;51.858;4.398;2023-04-03T00:45:47;4.70;99.90
40454;DHT22;26160;51.858;4.398;2023-04-03T00:48:29;4.70;99.90
40454;DHT22;26160;51.858;4.398;2023-04-03T00:50:56;4.60;99.90
40454;DHT22;26160;51.858;4.398;2023-04-03T00:53:26;4.60;99.90
40454;DHT22;26160;51.858;4.398;2023-04-03T00:55:54;4.60;99.90
40454;DHT22;26160;51.858;4.398;2023-04-03T00:58:34;4.60;99.90
40454;DHT22;26160;51.858;4.398;2023-04-03T01:03:37;4.50;99.90
40454;DHT22;26160;51.858;4.398;2023-04-03T01:06:04;4.50;99.90
40454;DHT22;26160;51.858;4.398;2023-04-03T01:08:30;4.50;99.90
40454;DHT22;26160;51.858;4.398;2023-04-03T01:10:56;4.50;99.90
40454;DHT22;26160;51.858;4.398;2023-04-03T01:13:29;4.50;99.90
40454;DHT22;26160;51.858;4.398;2023-04-03T01:15:56;4.50;99.90
40454;DHT22;26160;51.858;4.398;2023-04-03T01:18:25;4.50;99.90
40454;DHT22;26160;51.858;4.398;2023-04-03T01:23:40;4.40;99.90
40454;DHT22;26160;51.858;4.398;2023-04-03T01:26:07;4.40;99.90
40454;DHT22;26160;51.858;4.398;2023-04-03T01:28:36;4.40;99.90
40454;DHT22;26160;51.858;4.398;2023-04-03T01:34:02;4.30;99.90
40454;DHT22;26160;51.858;4.398;2023-04-03T01:36:31;4.30;99.90
40454;DHT22;26160;51.858;4.398;2023-04-03T01:38:59;4.20;99.90
40454;DHT22;26160;51.858;4.398;2023-04-03T01:41:26;4.20;99.90
40454;DHT22;26160;51.858;4.398;2023-04-03T01:43:52;4.20;99.90
40454;DHT22;26160;51.858;4.398;2023-04-03T01:46:19;4.20;99.90
40454;DHT22;26160;51.858;4.398;2023-04-03T01:48:46;4.10;99.90
40454;DHT22;26160;51.858;4.398;2023-04-03T01:51:12;4.10;99.90
40454;DHT22;26160;51.858;4.398;2023-04-03T01:53:38;4.00;99.90
40454;DHT22;26160;51.858;4.398;2023-04-03T01:56:05;4.00;99.90
40454;DHT22;26160;51.858;4.398;2023-04-03T01:58:31;3.90;99.90
40454;DHT22;26160;51.858;4.398;2023-04-03T02:00:57;3.90;99.90
40454;DHT22;26160;51.858;4.398;2023-04-03T02:03:23;3.90;99.90
40454;DHT22;26160;51.858;4.398;2023-04-03T02:05:50;3.90;99.90
40454;DHT22;26160;51.858;4.398;2023-04-03T02:08:16;3.90;99.90
40454;DHT22;26160;51.858;4.398;2023-04-03T02:10:46;3.80;99.90
40454;DHT22;26160;51.858;4.398;2023-04-03T02:13:13;3.80;99.90
40454;DHT22;26160;51.858;4.398;2023-04-03T02:15:39;3.80;99.90
40454;DHT22;26160;51.858;4.398;2023-04-03T02:18:06;3.80;99.90
40454;DHT22;26160;51.858;4.398;2023-04-03T02:20:32;3.70;99.90
40454;DHT22;26160;51.858;4.398;2023-04-03T02:22:59;3.60;99.90
40454;DHT22;26160;51.858;4.398;2023-04-03T02:25:25;3.60;99.90
40454;DHT22;26160;51.858;4.398;2023-04-03T02:27:51;3.60;99.90
40454;DHT22;26160;51.858;4.398;2023-04-03T02:30:18;3.60;99.90
40454;DHT22;26160;51.858;4.398;2023-04-03T02:32:44;3.60;99.90
40454;DHT22;26160;51.858;4.398;2023-04-03T02:35:11;3.60;99.90
40454;DHT22;26160;51.858;4.398;2023-04-03T02:37:38;3.60;99.90
40454;DHT22;26160;51.858;4.398;2023-04-03T02:40:05;3.50;99.90
40454;DHT22;26160;51.858;4.398;2023-04-03T02:42:31;3.50;99.90
40454;DHT22;26160;51.858;4.398;2023-04-03T02:44:58;3.40;99.90
40454;DHT22;26160;51.858;4.398;2023-04-03T02:47:27;3.30;99.90
40454;DHT22;26160;51.858;4.398;2023-04-03T02:49:53;3.30;99.90
40454;DHT22;26160;51.858;4.398;2023-04-03T02:52:20;3.30;99.90
40454;DHT22;26160;51.858;4.398;2023-04-03T02:54:46;3.30;99.90
40454;DHT22;26160;51.858;4.398;2023-04-03T02:57:12;3.20;99.90
40454;DHT22;26160;51.858;4.398;2023-04-03T02:59:38;3.20;99.90
40454;DHT22;26160;51.858;4.398;2023-04-03T03:02:08;3.10;99.90
40454;DHT22;26160;51.858;4.398;2023-04-03T03:04:35;3.10;99.90
40454;DHT22;26160;51.858;4.398;2023-04-03T03:07:01;3.10;99.90
40454;DHT22;26160;51.858;4.398;2023-04-03T03:09:28;3.10;99.90
40454;DHT22;26160;51.858;4.398;2023-04-03T03:11:56;3.10;99.90
40454;DHT22;26160;51.858;4.398;2023-04-03T03:14:22;3.00;99.90
40454;DHT22;26160;51.858;4.398;2023-04-03T03:16:52;3.00;99.90
40454;DHT22;26160;51.858;4.398;2023-04-03T03:19:18;3.00;99.90
40454;DHT22;26160;51.858;4.398;2023-04-03T03:21:44;2.90;99.90
40454;DHT22;26160;51.858;4.398;2023-04-03T03:24:10;2.80;99.90
40454;DHT22;26160;51.858;4.398;2023-04-03T03:26:37;2.80;99.90
40454;DHT22;26160;51.858;4.398;2023-04-03T03:29:03;2.70;99.90
40454;DHT22;26160;51.858;4.398;2023-04-03T03:31:30;2.70;99.90
40454;DHT22;26160;51.858;4.398;2023-04-03T03:33:56;2.70;99.90
40454;DHT22;26160;51.858;4.398;2023-04-03T03:36:22;2.70;99.90
40454;DHT22;26160;51.858;4.398;2023-04-03T03:38:48;2.60;99.90
40454;DHT22;26160;51.858;4.398;2023-04-03T03:41:14;2.60;99.90
40454;DHT22;26160;51.858;4.398;2023-04-03T03:43:40;2.60;99.90
40454;DHT22;26160;51.858;4.398;2023-04-03T03:46:06;2.60;99.90
40454;DHT22;26160;51.858;4.398;2023-04-03T03:48:33;2.60;99.90
40454;DHT22;26160;51.858;4.398;2023-04-03T03:50:59;2.60;99.90
40454;DHT22;26160;51.858;4.398;2023-04-03T03:53:25;2.60;99.90
40454;DHT22;26160;51.858;4.398;2023-04-03T03:55:51;2.60;99.90
40454;DHT22;26160;51.858;4.398;2023-04-03T03:58:17;2.60;99.90
40454;DHT22;26160;51.858;4.398;2023-04-03T04:00:44;2.60;99.90
40454;DHT22;26160;51.858;4.398;2023-04-03T04:03:10;2.50;99.90
40454;DHT22;26160;51.858;4.398;2023-04-03T04:05:36;2.50;99.90
40454;DHT22;26160;51.858;4.398;2023-04-03T04:08:02;2.50;99.90
40454;DHT22;26160;51.858;4.398;2023-04-03T04:10:28;2.50;99.90
40454;DHT22;26160;51.858;4.398;2023-04-03T04:12:54;2.50;99.90
40454;DHT22;26160;51.858;4.398;2023-04-03T04:15:20;2.50;99.90
40454;DHT22;26160;51.858;4.398;2023-04-03T04:17:47;2.40;99.90
40454;DHT22;26160;51.858;4.398;2023-04-03T04:20:14;2.40;99.90
40454;DHT22;26160;51.858;4.398;2023-04-03T04:22:40;2.40;99.90
40454;DHT22;26160;51.858;4.398;2023-04-03T04:25:06;2.30;99.90
40454;DHT22;26160;51.858;4.398;2023-04-03T04:27:32;2.30;99.90
40454;DHT22;26160;51.858;4.398;2023-04-03T04:29:59;2.30;99.90
40454;DHT22;26160;51.858;4.398;2023-04-03T04:32:25;2.20;99.90
40454;DHT22;26160;51.858;4.398;2023-04-03T04:34:51;2.20;99.90
40454;DHT22;26160;51.858;4.398;2023-04-03T04:37:17;2.20;99.90
40454;DHT22;26160;51.858;4.398;2023-04-03T04:39:43;2.30;99.90
40454;DHT22;26160;51.858;4.398;2023-04-03T04:42:09;2.30;99.90
40454;DHT22;26160;51.858;4.398;2023-04-03T04:44:39;2.20;99.90
40454;DHT22;26160;51.858;4.398;2023-04-03T04:47:05;2.20;99.90
40454;DHT22;26160;51.858;4.398;2023-04-03T04:49:31;2.20;99.90
40454;DHT22;26160;51.858;4.398;2023-04-03T04:51:57;2.20;99.90
40454;DHT22;26160;51.858;4.398;2023-04-03T04:54:23;2.10;99.90
40454;DHT22;26160;51.858;4.398;2023-04-03T04:56:50;2.10;99.90
40454;DHT22;26160;51.858;4.398;2023-04-03T04:59:16;2.10;99.90
40454;DHT22;26160;51.858;4.398;2023-04-03T05:01:42;2.10;99.90
40454;DHT22;26160;51.858;4.398;2023-04-03T05:04:08;2.10;99.90
40454;DHT22;26160;51.858;4.398;2023-04-03T05:06:35;2.10;99.90
40454;DHT22;26160;51.858;4.398;2023-04-03T05:09:01;2.10;99.90
40454;DHT22;26160;51.858;4.398;2023-04-03T05:11:27;2.10;99.90
40454;DHT22;26160;51.858;4.398;2023-04-03T05:13:54;2.00;99.90
40454;DHT22;26160;51.858;4.398;2023-04-03T05:16:20;2.00;99.90
40454;DHT22;26160;51.858;4.398;2023-04-03T05:18:46;2.00;99.90
40454;DHT22;26160;51.858;4.398;2023-04-03T05:21:12;2.10;99.90
40454;DHT22;26160;51.858;4.398;2023-04-03T05:23:38;2.10;99.90
40454;DHT22;26160;51.858;4.398;2023-04-03T05:26:04;2.10;99.90
40454;DHT22;26160;51.858;4.398;2023-04-03T05:28:31;2.10;99.90
40454;DHT22;26160;51.858;4.398;2023-04-03T05:30:58;2.10;99.90
40454;DHT22;26160;51.858;4.398;2023-04-03T05:33:25;2.10;99.90
40454;DHT22;26160;51.858;4.398;2023-04-03T05:35:53;2.20;99.90
40454;DHT22;26160;51.858;4.398;2023-04-03T05:38:19;2.10;99.90
40454;DHT22;26160;51.858;4.398;2023-04-03T05:40:45;2.20;99.90
40454;DHT22;26160;51.858;4.398;2023-04-03T05:43:12;2.20;99.90
40454;DHT22;26160;51.858;4.398;2023-04-03T05:45:38;2.20;99.90
40454;DHT22;26160;51.858;4.398;2023-04-03T05:48:04;2.20;99.90
40454;DHT22;26160;51.858;4.398;2023-04-03T05:50:30;2.20;99.90
40454;DHT22;26160;51.858;4.398;2023-04-03T05:52:57;2.30;99.90
40454;DHT22;26160;51.858;4.398;2023-04-03T05:55:24;2.40;99.90
40454;DHT22;26160;51.858;4.398;2023-04-03T05:57:51;2.30;99.90
40454;DHT22;26160;51.858;4.398;2023-04-03T06:00:17;2.40;99.90
40454;DHT22;26160;51.858;4.398;2023-04-03T06:02:43;2.40;99.90
40454;DHT22;26160;51.858;4.398;2023-04-03T06:05:10;2.50;99.90
40454;DHT22;26160;51.858;4.398;2023-04-03T06:07:37;2.60;99.90
40454;DHT22;26160;51.858;4.398;2023-04-03T06:10:04;2.60;99.90
40454;DHT22;26160;51.858;4.398;2023-04-03T06:12:31;2.70;99.90
40454;DHT22;26160;51.858;4.398;2023-04-03T06:14:57;2.80;99.90
40454;DHT22;26160;51.858;4.398;2023-04-03T06:17:23;2.80;99.90
40454;DHT22;26160;51.858;4.398;2023-04-03T06:19:50;2.80;99.90
40454;DHT22;26160;51.858;4.398;2023-04-03T06:22:16;2.90;99.90
40454;DHT22;26160;51.858;4.398;2023-04-03T06:24:42;3.00;99.90
40454;DHT22;26160;51.858;4.398;2023-04-03T06:27:10;3.00;99.90
40454;DHT22;26160;51.858;4.398;2023-04-03T06:29:37;3.10;99.90
40454;DHT22;26160;51.858;4.398;2023-04-03T06:32:03;3.10;99.90
40454;DHT22;26160;51.858;4.398;2023-04-03T06:34:29;3.20;99.90
40454;DHT22;26160;51.858;4.398;2023-04-03T06:36:55;3.20;99.90
40454;DHT22;26160;51.858;4.398;2023-04-03T06:39:22;3.30;99.90
40454;DHT22;26160;51.858;4.398;2023-04-03T06:41:51;3.30;99.90
40454;DHT22;26160;51.858;4.398;2023-04-03T06:44:17;3.40;99.90
40454;DHT22;26160;51.858;4.398;2023-04-03T06:46:44;3.40;99.90
40454;DHT22;26160;51.858;4.398;2023-04-03T06:49:12;3.50;99.90
40454;DHT22;26160;51.858;4.398;2023-04-03T06:51:38;3.50;99.90
40454;DHT22;26160;51.858;4.398;2023-04-03T06:54:05;3.60;99.90
40454;DHT22;26160;51.858;4.398;2023-04-03T06:56:32;3.60;99.90
40454;DHT22;26160;51.858;4.398;2023-04-03T06:58:59;3.70;99.90
40454;DHT22;26160;51.858;4.398;2023-04-03T07:01:27;3.80;99.90
40454;DHT22;26160;51.858;4.398;2023-04-03T07:03:54;3.80;99.90
40454;DHT22;26160;51.858;4.398;2023-04-03T07:06:20;3.90;99.90
40454;DHT22;26160;51.858;4.398;2023-04-03T07:08:47;3.90;99.90
40454;DHT22;26160;51.858;4.398;2023-04-03T07:11:16;4.00;99.90
40454;DHT22;26160;51.858;4.398;2023-04-03T07:13:42;4.10;99.90
40454;DHT22;26160;51.858;4.398;2023-04-03T07:16:09;4.10;99.90
40454;DHT22;26160;51.858;4.398;2023-04-03T07:18:35;4.10;99.90
40454;DHT22;26160;51.858;4.398;2023-04-03T07:21:02;4.20;99.90
40454;DHT22;26160;51.858;4.398;2023-04-03T07:23:28;4.20;99.90
40454;DHT22;26160;51.858;4.398;2023-04-03T07:25:54;4.20;99.90
40454;DHT22;26160;51.858;4.398;2023-04-03T07:28:21;4.20;99.90
40454;DHT22;26160;51.858;4.398;2023-04-03T07:30:51;4.30;99.90
40454;DHT22;26160;51.858;4.398;2023-04-03T07:33:21;4.30;99.90
40454;DHT22;26160;51.858;4.398;2023-04-03T07:35:48;4.30;99.90
40454;DHT22;26160;51.858;4.398;2023-04-03T07:38:14;4.30;99.90
40454;DHT22;26160;51.858;4.398;2023-04-03T07:40:48;4.30;99.90
40454;DHT22;26160;51.858;4.398;2023-04-03T07:43:16;4.40;99.90
40454;DHT22;26160;51.858;4.398;2023-04-03T07:45:42;4.40;99.90
40454;DHT22;26160;51.858;4.398;2023-04-03T07:48:12;4.50;99.90
40454;DHT22;26160;51.858;4.398;2023-04-03T07:50:42;4.60;99.90
40454;DHT22;26160;51.858;4.398;2023-04-03T07:53:08;4.60;99.90
40454;DHT22;26160;51.858;4.398;2023-04-03T07:55:35;4.70;99.90
40454;DHT22;26160;51.858;4.398;2023-04-03T07:58:14;4.70;99.90
40454;DHT22;26160;51.858;4.398;2023-04-03T08:00:41;4.80;99.90
40454;DHT22;26160;51.858;4.398;2023-04-03T08:03:09;5.00;99.90
40454;DHT22;26160;51.858;4.398;2023-04-03T08:05:40;5.00;99.90
40454;DHT22;26160;51.858;4.398;2023-04-03T08:08:06;5.10;99.90
40454;DHT22;26160;51.858;4.398;2023-04-03T08:10:33;5.10;99.90
40454;DHT22;26160;51.858;4.398;2023-04-03T08:13:00;5.20;99.90
40454;DHT22;26160;51.858;4.398;2023-04-03T08:15:26;5.40;99.90
40454;DHT22;26160;51.858;4.398;2023-04-03T08:17:53;5.50;99.90
40454;DHT22;26160;51.858;4.398;2023-04-03T08:20:19;5.60;99.90
40454;DHT22;26160;51.858;4.398;2023-04-03T08:22:46;5.70;99.90
40454;DHT22;26160;51.858;4.398;2023-04-03T08:25:12;5.90;99.90
40454;DHT22;26160;51.858;4.398;2023-04-03T08:27:38;6.00;99.90
40454;DHT22;26160;51.858;4.398;2023-04-03T08:30:05;6.20;99.90
40454;DHT22;26160;51.858;4.398;2023-04-03T08:32:34;6.20;99.90
40454;DHT22;26160;51.858;4.398;2023-04-03T08:35:00;6.20;99.90
40454;DHT22;26160;51.858;4.398;2023-04-03T08:37:27;6.30;99.90
40454;DHT22;26160;51.858;4.398;2023-04-03T08:39:53;6.50;99.90
40454;DHT22;26160;51.858;4.398;2023-04-03T08:42:46;6.70;99.90
40454;DHT22;26160;51.858;4.398;2023-04-03T08:45:48;6.80;99.90
40454;DHT22;26160;51.858;4.398;2023-04-03T08:48:20;6.90;99.90
40454;DHT22;26160;51.858;4.398;2023-04-03T08:50:53;7.10;99.90
40454;DHT22;26160;51.858;4.398;2023-04-03T08:53:23;7.10;99.90
40454;DHT22;26160;51.858;4.398;2023-04-03T08:55:53;7.20;99.90
40454;DHT22;26160;51.858;4.398;2023-04-03T08:58:21;7.30;99.90
40454;DHT22;26160;51.858;4.398;2023-04-03T09:01:01;7.40;99.90
40454;DHT22;26160;51.858;4.398;2023-04-03T09:03:37;7.60;99.90
40454;DHT22;26160;51.858;4.398;2023-04-03T09:11:35;7.80;99.90
40454;DHT22;26160;51.858;4.398;2023-04-03T09:17:28;7.80;99.90
40454;DHT22;26160;51.858;4.398;2023-04-03T09:19:56;7.90;99.90
40454;DHT22;26160;51.858;4.398;2023-04-03T09:22:26;8.10;99.90
40454;DHT22;26160;51.858;4.398;2023-04-03T09:25:05;8.20;99.90
40454;DHT22;26160;51.858;4.398;2023-04-03T09:27:34;8.30;99.90
40454;DHT22;26160;51.858;4.398;2023-04-03T09:30:00;8.30;99.90
40454;DHT22;26160;51.858;4.398;2023-04-03T09:32:32;8.20;99.90
40454;DHT22;26160;51.858;4.398;2023-04-03T09:35:04;8.40;99.90
40454;DHT22;26160;51.858;4.398;2023-04-03T09:37:45;8.40;99.90
40454;DHT22;26160;51.858;4.398;2023-04-03T09:42:59;8.60;99.90
40454;DHT22;26160;51.858;4.398;2023-04-03T09:45:32;8.80;99.90
40454;DHT22;26160;51.858;4.398;2023-04-03T09:50:31;9.00;99.90
40454;DHT22;26160;51.858;4.398;2023-04-03T09:52:57;9.00;99.90
40454;DHT22;26160;51.858;4.398;2023-04-03T09:55:27;9.00;99.90
40454;DHT22;26160;51.858;4.398;2023-04-03T09:57:58;8.90;99.90
40454;DHT22;26160;51.858;4.398;2023-04-03T10:00:34;8.90;99.90
40454;DHT22;26160;51.858;4.398;2023-04-03T10:03:01;8.80;99.90
40454;DHT22;26160;51.858;4.398;2023-04-03T10:05:35;8.80;99.90
40454;DHT22;26160;51.858;4.398;2023-04-03T10:10:44;8.90;99.90
40454;DHT22;26160;51.858;4.398;2023-04-03T10:13:12;8.90;99.90
40454;DHT22;26160;51.858;4.398;2023-04-03T10:15:48;9.20;99.90
40454;DHT22;26160;51.858;4.398;2023-04-03T10:21:15;9.80;99.90
40454;DHT22;26160;51.858;4.398;2023-04-03T10:23:51;9.90;99.90
40454;DHT22;26160;51.858;4.398;2023-04-03T10:26:35;10.10;99.90
40454;DHT22;26160;51.858;4.398;2023-04-03T10:29:18;10.10;99.90
40454;DHT22;26160;51.858;4.398;2023-04-03T10:32:07;9.90;99.90
40454;DHT22;26160;51.858;4.398;2023-04-03T10:34:43;10.10;99.90
40454;DHT22;26160;51.858;4.398;2023-04-03T10:40:33;10.40;99.90
40454;DHT22;26160;51.858;4.398;2023-04-03T10:46:08;10.50;99.90
40454;DHT22;26160;51.858;4.398;2023-04-03T10:51:48;10.40;99.90
40454;DHT22;26160;51.858;4.398;2023-04-03T10:57:00;10.60;99.90
40454;DHT22;26160;51.858;4.398;2023-04-03T10:59:37;10.40;99.90
40454;DHT22;26160;51.858;4.398;2023-04-03T11:02:11;10.70;99.90
40454;DHT22;26160;51.858;4.398;2023-04-03T11:04:42;10.70;99.90
40454;DHT22;26160;51.858;4.398;2023-04-03T11:07:15;10.80;99.90
40454;DHT22;26160;51.858;4.398;2023-04-03T11:09:44;10.80;99.90
40454;DHT22;26160;51.858;4.398;2023-04-03T11:13:19;10.70;99.90
40454;DHT22;26160;51.858;4.398;2023-04-03T11:15:15;10.90;99.90
40454;DHT22;26160;51.858;4.398;2023-04-03T11:17:53;10.70;98.10
40454;DHT22;26160;51.858;4.398;2023-04-03T11:20:28;10.60;96.70
40454;DHT22;26160;51.858;4.398;2023-04-03T11:25:38;10.70;98.30
40454;DHT22;26160;51.858;4.398;2023-04-03T11:28:13;10.70;98.80
40454;DHT22;26160;51.858;4.398;2023-04-03T11:36:08;10.80;96.30
40454;DHT22;26160;51.858;4.398;2023-04-03T11:38:38;10.60;95.50
40454;DHT22;26160;51.858;4.398;2023-04-03T11:41:09;10.80;96.80
40454;DHT22;26160;51.858;4.398;2023-04-03T11:43:59;10.80;98.40
40454;DHT22;26160;51.858;4.398;2023-04-03T11:46:52;11.00;99.00
40454;DHT22;26160;51.858;4.398;2023-04-03T12:16:29;11.50;98.90
40454;DHT22;26160;51.858;4.398;2023-04-03T12:48:59;11.80;99.90
40454;DHT22;26160;51.858;4.398;2023-04-03T12:51:42;12.00;99.90
40454;DHT22;26160;51.858;4.398;2023-04-03T12:54:16;12.00;98.40
40454;DHT22;26160;51.858;4.398;2023-04-03T12:56:42;11.90;98.80
40454;DHT22;26160;51.858;4.398;2023-04-03T12:59:25;12.10;97.60
40454;DHT22;26160;51.858;4.398;2023-04-03T13:01:58;12.10;98.00
40454;DHT22;26160;51.858;4.398;2023-04-03T13:04:25;12.20;97.80
40454;DHT22;26160;51.858;4.398;2023-04-03T13:06:52;12.50;99.30
40454;DHT22;26160;51.858;4.398;2023-04-03T13:09:22;12.80;99.90
40454;DHT22;26160;51.858;4.398;2023-04-03T13:11:50;12.90;99.90
40454;DHT22;26160;51.858;4.398;2023-04-03T13:14:20;13.10;99.20
40454;DHT22;26160;51.858;4.398;2023-04-03T13:19:27;12.30;99.10
40454;DHT22;26160;51.858;4.398;2023-04-03T13:22:06;12.50;99.90
40454;DHT22;26160;51.858;4.398;2023-04-03T13:24:36;12.80;99.90
40454;DHT22;26160;51.858;4.398;2023-04-03T13:27:03;13.00;99.90
40454;DHT22;26160;51.858;4.398;2023-04-03T13:29:33;12.60;98.40
40454;DHT22;26160;51.858;4.398;2023-04-03T13:32:01;12.50;99.60
40454;DHT22;26160;51.858;4.398;2023-04-03T13:34:40;12.40;99.50
40454;DHT22;26160;51.858;4.398;2023-04-03T13:37:07;12.50;99.90
40454;DHT22;26160;51.858;4.398;2023-04-03T13:39:39;12.60;99.90
40454;DHT22;26160;51.858;4.398;2023-04-03T13:42:25;12.40;99.30
40454;DHT22;26160;51.858;4.398;2023-04-03T13:45:21;12.20;99.70
40454;DHT22;26160;51.858;4.398;2023-04-03T13:47:51;12.40;99.90
40454;DHT22;26160;51.858;4.398;2023-04-03T13:50:21;12.30;99.90
40454;DHT22;26160;51.858;4.398;2023-04-03T13:53:11;12.20;99.70
40454;DHT22;26160;51.858;4.398;2023-04-03T13:58:32;11.90;99.90
40454;DHT22;26160;51.858;4.398;2023-04-03T14:01:17;12.10;99.90
40454;DHT22;26160;51.858;4.398;2023-04-03T14:03:55;12.60;99.90
40454;DHT22;26160;51.858;4.398;2023-04-03T14:06:22;12.60;99.60
40454;DHT22;26160;51.858;4.398;2023-04-03T14:08:48;12.40;99.90
40454;DHT22;26160;51.858;4.398;2023-04-03T14:11:18;12.40;99.90
40454;DHT22;26160;51.858;4.398;2023-04-03T14:13:46;12.70;99.90
40454;DHT22;26160;51.858;4.398;2023-04-03T14:16:19;12.80;99.90
40454;DHT22;26160;51.858;4.398;2023-04-03T14:18:47;12.70;99.90
40454;DHT22;26160;51.858;4.398;2023-04-03T14:21:16;12.50;99.90
40454;DHT22;26160;51.858;4.398;2023-04-03T14:23:42;12.30;99.90
40454;DHT22;26160;51.858;4.398;2023-04-03T14:26:14;12.30;99.90
40454;DHT22;26160;51.858;4.398;2023-04-03T14:28:43;12.40;99.90
40454;DHT22;26160;51.858;4.398;2023-04-03T14:31:14;12.30;99.90
40454;DHT22;26160;51.858;4.398;2023-04-03T14:33:41;12.20;99.90
40454;DHT22;26160;51.858;4.398;2023-04-03T14:36:26;12.30;99.90
40454;DHT22;26160;51.858;4.398;2023-04-03T14:38:53;12.50;99.90
40454;DHT22;26160;51.858;4.398;2023-04-03T14:41:22;12.20;99.90
40454;DHT22;26160;51.858;4.398;2023-04-03T14:43:49;11.90;99.90
40454;DHT22;26160;51.858;4.398;2023-04-03T14:46:28;12.10;99.90
40454;DHT22;26160;51.858;4.398;2023-04-03T14:48:55;11.90;99.60
40454;DHT22;26160;51.858;4.398;2023-04-03T14:51:21;11.80;99.90
40454;DHT22;26160;51.858;4.398;2023-04-03T14:53:48;12.00;99.90
40454;DHT22;26160;51.858;4.398;2023-04-03T14:56:26;11.90;99.90
40454;DHT22;26160;51.858;4.398;2023-04-03T14:58:56;11.70;99.90
40454;DHT22;26160;51.858;4.398;2023-04-03T15:01:23;11.90;99.90
40454;DHT22;26160;51.858;4.398;2023-04-03T15:03:49;12.20;99.90
40454;DHT22;26160;51.858;4.398;2023-04-03T15:06:15;12.20;99.90
40454;DHT22;26160;51.858;4.398;2023-04-03T15:08:43;12.00;99.90
40454;DHT22;26160;51.858;4.398;2023-04-03T15:11:10;11.90;99.90
40454;DHT22;26160;51.858;4.398;2023-04-03T15:13:38;11.80;99.90
40454;DHT22;26160;51.858;4.398;2023-04-03T15:16:16;12.00;99.90
40454;DHT22;26160;51.858;4.398;2023-04-03T15:18:42;11.90;99.90
40454;DHT22;26160;51.858;4.398;2023-04-03T15:21:09;11.80;99.90
40454;DHT22;26160;51.858;4.398;2023-04-03T15:23:35;11.70;99.90
40454;DHT22;26160;51.858;4.398;2023-04-03T15:26:02;11.60;99.90
40454;DHT22;26160;51.858;4.398;2023-04-03T15:28:37;11.70;99.90
40454;DHT22;26160;51.858;4.398;2023-04-03T15:31:04;11.50;99.90
40454;DHT22;26160;51.858;4.398;2023-04-03T15:33:31;11.50;99.90
40454;DHT22;26160;51.858;4.398;2023-04-03T15:35:58;11.40;99.90
40454;DHT22;26160;51.858;4.398;2023-04-03T15:38:24;11.40;99.90
40454;DHT22;26160;51.858;4.398;2023-04-03T15:40:50;11.50;99.90
40454;DHT22;26160;51.858;4.398;2023-04-03T15:43:17;11.70;99.90
40454;DHT22;26160;51.858;4.398;2023-04-03T15:45:44;11.70;99.90
40454;DHT22;26160;51.858;4.398;2023-04-03T15:48:11;11.70;99.90
40454;DHT22;26160;51.858;4.398;2023-04-03T15:50:38;11.70;99.90
40454;DHT22;26160;51.858;4.398;2023-04-03T15:53:04;11.40;99.90
40454;DHT22;26160;51.858;4.398;2023-04-03T15:55:32;11.20;99.90
40454;DHT22;26160;51.858;4.398;2023-04-03T15:57:59;11.30;99.90
40454;DHT22;26160;51.858;4.398;2023-04-03T16:00:25;11.40;99.90
40454;DHT22;26160;51.858;4.398;2023-04-03T16:02:56;11.20;99.90
40454;DHT22;26160;51.858;4.398;2023-04-03T16:05:24;11.00;99.90
40454;DHT22;26160;51.858;4.398;2023-04-03T16:07:50;11.20;99.90
40454;DHT22;26160;51.858;4.398;2023-04-03T16:10:18;11.30;99.90
40454;DHT22;26160;51.858;4.398;2023-04-03T16:12:44;11.40;99.90
40454;DHT22;26160;51.858;4.398;2023-04-03T16:15:11;11.30;99.90
40454;DHT22;26160;51.858;4.398;2023-04-03T16:17:38;11.20;99.90
40454;DHT22;26160;51.858;4.398;2023-04-03T16:20:08;10.90;99.90
40454;DHT22;26160;51.858;4.398;2023-04-03T16:22:34;10.80;99.90
40454;DHT22;26160;51.858;4.398;2023-04-03T16:25:01;11.00;99.90
40454;DHT22;26160;51.858;4.398;2023-04-03T16:27:27;10.90;99.90
40454;DHT22;26160;51.858;4.398;2023-04-03T16:29:56;10.80;99.90
40454;DHT22;26160;51.858;4.398;2023-04-03T16:32:27;10.70;99.90
40454;DHT22;26160;51.858;4.398;2023-04-03T16:34:55;10.70;99.90
40454;DHT22;26160;51.858;4.398;2023-04-03T16:37:21;10.70;99.90
40454;DHT22;26160;51.858;4.398;2023-04-03T16:39:47;10.70;99.90
40454;DHT22;26160;51.858;4.398;2023-04-03T16:42:13;10.50;99.90
40454;DHT22;26160;51.858;4.398;2023-04-03T16:44:39;10.50;99.90
40454;DHT22;26160;51.858;4.398;2023-04-03T16:47:07;10.40;99.90
40454;DHT22;26160;51.858;4.398;2023-04-03T16:49:34;10.40;99.90
40454;DHT22;26160;51.858;4.398;2023-04-03T16:52:02;10.30;99.90
40454;DHT22;26160;51.858;4.398;2023-04-03T16:54:28;10.30;99.90
40454;DHT22;26160;51.858;4.398;2023-04-03T16:56:55;10.30;99.90
40454;DHT22;26160;51.858;4.398;2023-04-03T16:59:21;10.20;99.90
40454;DHT22;26160;51.858;4.398;2023-04-03T17:01:48;10.10;99.90
40454;DHT22;26160;51.858;4.398;2023-04-03T17:04:14;10.20;99.90
40454;DHT22;26160;51.858;4.398;2023-04-03T17:06:41;10.10;99.90
40454;DHT22;26160;51.858;4.398;2023-04-03T17:09:08;10.10;99.90
40454;DHT22;26160;51.858;4.398;2023-04-03T17:11:35;9.90;99.90
40454;DHT22;26160;51.858;4.398;2023-04-03T17:14:02;9.80;99.90
40454;DHT22;26160;51.858;4.398;2023-04-03T17:16:28;9.80;99.90
40454;DHT22;26160;51.858;4.398;2023-04-03T17:18:55;9.80;99.90
40454;DHT22;26160;51.858;4.398;2023-04-03T17:21:21;9.80;99.90
40454;DHT22;26160;51.858;4.398;2023-04-03T17:23:50;9.70;99.90
40454;DHT22;26160;51.858;4.398;2023-04-03T17:26:18;9.60;99.90
40454;DHT22;26160;51.858;4.398;2023-04-03T17:28:44;9.50;99.90
40454;DHT22;26160;51.858;4.398;2023-04-03T17:31:10;9.40;99.90
40454;DHT22;26160;51.858;4.398;2023-04-03T17:33:36;9.30;99.90
40454;DHT22;26160;51.858;4.398;2023-04-03T17:36:03;9.30;99.90
40454;DHT22;26160;51.858;4.398;2023-04-03T17:38:31;9.30;99.90
40454;DHT22;26160;51.858;4.398;2023-04-03T17:41:00;9.20;99.90